SMZO

Zorg en Hoop Airport

Paramaribo, Suriname
TAF SMZO 200400Z 2006/2106 04004KT CAVOK TX30/2018Z TN23/2009Z BECMG 2011/2013 06010KT SCT020 FM202200 03006KT CAVOK
Issued Valid From Valid To
Jan-20 @ 04:00 UTC
(7 hours ago)
Jan-20 @ 06:00 UTC
(5 hours ago)
Jan-21 @ 06:00 UTC
(in 19 hours)
Expired Click to View Jan-20 @ 06:00 to Jan-20 @ 11:00
TAF SMZO 200400Z 2006/2106 04004KT CAVOK TX30/2018Z TN23/2009Z
Wind Visibility Clouds
40° at 4 knots 10,000+ meters
  • No significant clouds
Becoming Jan-20 @ 11:00 to Jan-20 @ 22:00
BECMG 2011/2013 06010KT SCT020
Wind Visibility Clouds
60° at 10 knots 10,000+ meters
  • Scattered at 2,000' AGL
From Jan-20 @ 22:00 to Jan-21 @ 06:00
FM202200 03006KT CAVOK
Wind Visibility Clouds Conditions
30° at 6 knots 10,000+ meters
  • No significant clouds
TAF SMZO 200400Z 2006/2106 04004KT CAVOK TX30/2018Z TN23/2009Z BECMG 2011/2013 06010KT SCT020 FM202200 03006KT CAVOK
Issued Jan-20 @ 04:00 UTC
(7 hours ago)
Valid From Jan-20 @ 06:00 UTC
(5 hours ago)
Valid To Jan-21 @ 06:00 UTC
(in 19 hours)
Jan-20 @ 06:00 - Jan-20 @ 11:00
Wind Visibility
40° at 4 knots 10,000+ meters
Clouds
  • No significant clouds
Becoming Jan-20 @ 11:00 - Jan-20 @ 22:00
Wind Visibility
60° at 10 knots 10,000+ meters
Clouds
  • Scattered at 2,000' AGL
From Jan-20 @ 22:00 - Jan-21 @ 06:00
Wind Visibility
30° at 6 knots 10,000+ meters
Clouds
  • No significant clouds
Conditions